Etusivu
METAR-TAF:

METAR-TAF

Lentoasemat :

Bahrainin kansainvälinen lentoasema

Bahrain, Bahrain

Leveyspiiri: 26-16N, Pituuspiiri: 050-39E, korkeus merenpinnasta: 2 m

Tämänhetkinen sää

Tämä raportti tehtiin 35 minuuttia sitten, kello 08.30 UTC
Tuuli 5 kn etelästä, vaihdellen kaakon ja etelän/lounaan välillä
Lämpötila 20°C
Kosteus 78%
Ilmanpaine 1018 hPa
Näkyvyys: 8000 m

METAR: OBBI 170830Z 17005KT 130V210 8000 NSC 20/16 Q1018 NOSIG

Aika: 12:05 (09:05 UTC)

Sääennuste

Tämä raportti tehtiin 4 tuntia ja 5 minuuttia sitten, kello 05.00 UTC
Ennuste voimassa 17. päivästä klo 06 UTC - 18. päivään klo 12 UTC
Tuuli 10 kn kaakosta
Näkyvyys: 7000 m
Todennäköisyys 30% :
Ajoittain
17. päivästä klo 06 UTC - 17. päivään klo 08 UTC
Näkyvyys: 4000 m
Hajanaisia pilviä 500 ft:n korkeudessa
usvaa

TAF: OBBI 170500Z 1706/1812 14010KT 7000 NSC PROB30 TEMPO 1706/1708 4000 HZ SCT005

Säähavainnot ja -ennusteet yli 4000 lentoasemalta (METAR- ja TAF-raportit).

Käytössä olevat sääasemat on merkitty karttaan keltaisilla ja punaisilla pisteillä.

Aseta hiiri pisteen päälle nähdäksesi sääaseman nimen.

Klikkaa sitten nähdäksesi säähavainnot ja -ennusteet.

Kartan vaihtaminen: klikkaa mustalla rastilla varustettuja vihreitä pisteitä, niin voit zoomata sisään; viivalla varustettua vihreää pistettä, niin voit zoomata ulos tai vihreitä nuolia, niin pääset viereisille kartoille.


METAR-TAF: